Nearby METAR Reports

 

KCXY - Harrisburg, Pennsylvania, USA
Distance from station: E 9mi, 14km
Updated: Thu, 18-Apr-2024 12:56pm EDT
Haze, Overcast
Haze, Overcast
 Wind from ESE
Wind: ESE 5 mph, 7 km/h
Temperature: 59°F, 15°C
Dew Point: 50°F, 10°C
Humidity: 72%
Barometer: 30.06 inHg, 1017.9 hPa
Summary: Haze
Clouds: Overcast
Visibility: 4 miles, 6 km
Cloud details: Overcast 1500 ft
2024/04/18 16:56 KCXY 181656Z 11004KT 4SM HZ OVC015 15/10 A3006 RMK AO2 SLP179 T01500100
KMDT - Middletown, Pennsylvania, USA
Distance from station: E 13mi, 21km
Updated: Thu, 18-Apr-2024 1:12pm EDT
Overcast
Overcast
 Wind from varies
Wind: varies 6 mph, 9 km/h
Temperature: 57°F, 14°C
Dew Point: 52°F, 11°C
Humidity: 82%
Barometer: 30.05 inHg, 1017.6 hPa
Clouds: Overcast
Visibility: 7 miles, 11 km
Cloud details: Overcast 1500 ft
2024/04/18 17:12 KMDT 181712Z VRB05KT 7SM OVC015 14/11 A3005 RMK AO2 T01440111
 
KTHV - York, Pennsylvania, USA
Distance from station: SSE 22mi, 36km
Updated: Thu, 18-Apr-2024 12:53pm EDT
Overcast
Overcast
 Wind from varies
Wind: varies 5 mph, 7 km/h
Temperature: 63°F, 17°C
Dew Point: 54°F, 12°C
Humidity: 73%
Barometer: 30.04 inHg, 1017.3 hPa
Clouds: Overcast
Visibility: 7 miles, 11 km
Cloud details: Mostly cloudy 1500 ft
Overcast 7000 ft
2024/04/18 16:53 KTHV 181653Z AUTO VRB04KT 7SM BKN015 OVC070 17/12 A3004 RMK AO2 SLP173 T01670122
KMUI - Muir Aaf/Indiant, Pennsylvania, USA
Distance from station: ENE 27mi, 44km
Updated: Thu, 18-Apr-2024 12:55pm EDT
Overcast
Overcast
 Wind from E
Wind: E 6 mph, 9 km/h
Temperature: 55°F, 13°C
Dew Point: 48°F, 9°C
Humidity: 77%
Barometer: 30.06 inHg, 1017.9 hPa
Clouds: Overcast
Visibility: 10 miles, 16 km
Cloud details: Overcast 1200 ft
2024/04/18 16:55 KMUI 181655Z 09005KT 10SM OVC012 13/09 A3006 RMK AO2A SLP183 T01250093
 
KLNS - Lancaster, Pennsylvania, USA
Distance from station: E 38mi, 62km
Updated: Thu, 18-Apr-2024 12:53pm EDT
Overcast
Overcast
 Wind from NE
Wind: NE 3 mph, 6 km/h
Temperature: 57°F, 14°C
Dew Point: 50°F, 10°C
Humidity: 77%
Barometer: 30.06 inHg, 1017.9 hPa
Clouds: Overcast
Visibility: 10 miles, 16 km
Cloud details: Overcast 1200 ft
2024/04/18 16:53 KLNS 181653Z 04003KT 10SM OVC012 14/10 A3006 RMK AO2 SLP179 T01390100
KRYT - Fountain Dale, Pennsylvania, USA
Distance from station: SSW 40mi, 65km
Updated: Mon, 13-Nov-2017 7:53am EST
NOT Current
Mist, Overcast
Mist, Overcast
 Wind from calm
Wind: Calm
Temperature: 37°F, 3°C
Dew Point: 34°F, 1°C
Humidity: 87%
Barometer: 30.31 inHg, 1026.4 hPa
Summary: Mist
Clouds: Overcast
Visibility: 5 miles, 8 km
Cloud details: Overcast 700 ft
2017/11/13 12:53 KRYT 131253Z AUTO 00000KT 5SM BR OVC007 03/01 A3031 RMK AO2 SLP275 T00280011 TSNO $
 
KSEG - Selinsgrove, Pennsylvania, USA
Distance from station: N 42mi, 67km
Updated: Thu, 18-Apr-2024 12:53pm EDT
Overcast
Overcast
 Wind from S
Wind: S 5 mph, 7 km/h
Temperature: 57°F, 14°C
Dew Point: 54°F, 12°C
Humidity: 88%
Barometer: 30.05 inHg, 1017.6 hPa
Clouds: Overcast
Visibility: 10 miles, 16 km
Cloud details: Overcast 1300 ft
2024/04/18 16:53 KSEG 181653Z AUTO 19004KT 10SM OVC013 14/12 A3005 RMK AO2 SLP175 T01440117
KDMW - Carroll Cnty, Maryland, USA
Distance from station: S 43mi, 69km
Updated: Thu, 18-Apr-2024 1:05pm EDT
Mostly cloudy
Mostly cloudy
 Wind from WNW
Wind: WNW 8 mph, 13 km/h
Temperature: 70°F, 21°C
Dew Point: 55°F, 13°C
Humidity: 60%
Barometer: 30.03 inHg, 1016.9 hPa
Clouds: Mostly cloudy
Visibility: 7 miles, 11 km
Cloud details: Partly cloudy 3000 ft
Partly cloudy 6000 ft
Mostly cloudy 7000 ft
2024/04/18 17:05 KDMW 181705Z AUTO 29007KT 7SM SCT030 SCT060 BKN070 21/13 A3003 RMK AO2
 
KRSP - Camp David, Maryland, USA
Distance from station: SSW 46mi, 74km
Updated: Thu, 18-Apr-2024 12:54pm EDT
Overcast
Overcast
 Wind from WNW
Wind: WNW 10 mph, 17 km/h, Gust: 23 mph, 37 km/h
Temperature: 63°F, 17°C
Dew Point: 48°F, 9°C
Humidity: 59%
Barometer: 30.04 inHg, 1017.3 hPa
Clouds: Overcast
Visibility: 10 miles, 16 km
Cloud details: Few Clouds 3700 ft
Few Clouds 4400 ft
Overcast 6000 ft
2024/04/18 16:54 KRSP 181654Z AUTO 30009G20KT 10SM FEW037 FEW044 OVC060 17/09 A3004 RMK AO2 SLP175 T01670094 $